createdAt,value
2019-05-09T00:00:49.403Z,948.73
2019-05-09T00:01:49.376Z,948.75
2019-05-09T00:02:49.350Z,948.67
2019-05-09T00:03:49.323Z,948.68
2019-05-09T00:04:49.301Z,948.67
2019-05-09T00:05:49.273Z,948.67
2019-05-09T00:06:49.245Z,948.61
2019-05-09T00:07:49.219Z,948.56
2019-05-09T00:08:49.194Z,948.56
2019-05-09T00:09:49.165Z,948.58
2019-05-09T00:10:49.140Z,948.53
2019-05-09T00:11:49.114Z,948.46
2019-05-09T00:12:49.089Z,948.43
2019-05-09T00:13:49.061Z,948.39
2019-05-09T00:14:49.041Z,948.38
2019-05-09T00:15:49.015Z,948.42
2019-05-09T00:16:48.985Z,948.34
2019-05-09T00:17:48.957Z,948.41
2019-05-09T00:18:48.932Z,948.39
2019-05-09T00:19:48.905Z,948.39
2019-05-09T00:20:50.380Z,948.36
2019-05-09T00:21:48.852Z,948.36
2019-05-09T00:22:48.826Z,948.39
2019-05-09T00:23:48.800Z,948.41
2019-05-09T00:24:48.773Z,948.43
2019-05-09T00:25:48.746Z,948.39
2019-05-09T00:26:48.722Z,948.36
2019-05-09T00:27:48.697Z,948.41
2019-05-09T00:28:48.669Z,948.40
2019-05-09T00:29:48.643Z,948.45
2019-05-09T00:30:48.616Z,948.41
2019-05-09T00:31:48.590Z,948.40
2019-05-09T00:32:48.564Z,948.43
2019-05-09T00:33:48.542Z,948.37
2019-05-09T00:34:48.511Z,948.40
2019-05-09T00:35:48.487Z,948.37
2019-05-09T00:36:48.460Z,948.34
2019-05-09T00:37:48.432Z,948.32
2019-05-09T00:38:48.408Z,948.34
2019-05-09T00:39:48.380Z,948.32
2019-05-09T00:40:57.792Z,948.34
2019-05-09T00:41:50.733Z,948.31
2019-05-09T00:42:48.300Z,948.30
2019-05-09T00:43:48.275Z,948.26
2019-05-09T00:44:48.249Z,948.24
2019-05-09T00:45:48.223Z,948.28
2019-05-09T00:46:48.196Z,948.29
2019-05-09T00:47:48.170Z,948.29
2019-05-09T00:48:48.144Z,948.33
2019-05-09T00:49:48.117Z,948.28
2019-05-09T00:50:48.091Z,948.26
2019-05-09T00:51:48.065Z,948.25
2019-05-09T00:52:48.039Z,948.23
2019-05-09T00:53:48.015Z,948.24
2019-05-09T00:54:47.986Z,948.27
2019-05-09T00:55:47.963Z,948.28
2019-05-09T00:56:47.936Z,948.27
2019-05-09T00:57:47.910Z,948.31
2019-05-09T00:58:47.881Z,948.32
2019-05-09T00:59:47.855Z,948.27
2019-05-09T01:00:47.831Z,948.29
2019-05-09T01:01:47.801Z,948.29
2019-05-09T01:02:47.775Z,948.26
2019-05-09T01:03:47.748Z,948.29
2019-05-09T01:04:47.722Z,948.28
2019-05-09T01:05:47.709Z,948.23
2019-05-09T01:06:47.668Z,948.26
2019-05-09T01:07:47.641Z,948.21
2019-05-09T01:08:47.616Z,948.19
2019-05-09T01:09:47.593Z,948.21
2019-05-09T01:10:47.562Z,948.20
2019-05-09T01:11:47.537Z,948.26
2019-05-09T01:12:47.510Z,948.25
2019-05-09T01:13:47.483Z,948.26
2019-05-09T01:14:47.457Z,948.22
2019-05-09T01:15:47.430Z,948.22
2019-05-09T01:16:47.404Z,948.20
2019-05-09T01:17:47.377Z,948.18
2019-05-09T01:18:47.352Z,948.20
2019-05-09T01:19:47.324Z,948.20
2019-05-09T01:20:47.297Z,948.21
2019-05-09T01:21:47.270Z,948.23
2019-05-09T01:22:47.244Z,948.21
2019-05-09T01:23:47.217Z,948.21
2019-05-09T01:24:47.192Z,948.21
2019-05-09T01:25:47.164Z,948.18
2019-05-09T01:26:47.140Z,948.17
2019-05-09T01:27:47.112Z,948.18
2019-05-09T01:28:47.088Z,948.21
2019-05-09T01:29:48.290Z,948.18
2019-05-09T01:30:47.033Z,948.24
2019-05-09T01:31:47.006Z,948.21
2019-05-09T01:32:46.979Z,948.16
2019-05-09T01:33:46.952Z,948.21
2019-05-09T01:34:46.926Z,948.14
2019-05-09T01:35:48.401Z,948.16
2019-05-09T01:36:46.873Z,948.16
2019-05-09T01:37:46.846Z,948.14
2019-05-09T01:38:46.819Z,948.12
2019-05-09T01:39:46.793Z,948.17
2019-05-09T01:40:46.772Z,948.17
2019-05-09T01:41:48.243Z,948.16
2019-05-09T01:42:46.714Z,948.18
2019-05-09T01:43:46.688Z,948.16
2019-05-09T01:44:46.661Z,948.14
2019-05-09T01:45:47.184Z,948.14
2019-05-09T01:46:46.608Z,948.12
2019-05-09T01:47:46.583Z,948.15
2019-05-09T01:48:46.555Z,948.21
2019-05-09T01:49:46.528Z,948.15
2019-05-09T01:50:46.503Z,948.12
2019-05-09T01:51:46.475Z,948.09
2019-05-09T01:52:46.449Z,948.20
2019-05-09T01:53:46.422Z,948.14
2019-05-09T01:54:46.400Z,948.17
2019-05-09T01:55:46.369Z,948.13
2019-05-09T01:56:46.344Z,948.06
2019-05-09T01:57:48.000Z,948.09
2019-05-09T01:58:46.291Z,948.12
2019-05-09T01:59:46.272Z,948.12
2019-05-09T02:00:46.239Z,948.08
2019-05-09T02:01:46.212Z,948.10
2019-05-09T02:02:46.185Z,948.07
2019-05-09T02:03:46.161Z,948.06
2019-05-09T02:04:46.133Z,948.09
2019-05-09T02:05:46.107Z,948.10
2019-05-09T02:06:46.081Z,948.11
2019-05-09T02:07:46.055Z,948.11
2019-05-09T02:08:46.051Z,948.10
2019-05-09T02:09:46.000Z,948.10
2019-05-09T02:10:45.974Z,948.10
2019-05-09T02:11:45.947Z,948.07
2019-05-09T02:12:45.923Z,948.08
2019-05-09T02:13:45.896Z,948.07
2019-05-09T02:14:45.869Z,948.07
2019-05-09T02:15:45.842Z,948.09
2019-05-09T02:16:45.816Z,948.02
2019-05-09T02:17:57.853Z,948.06
2019-05-09T02:18:45.766Z,948.05
2019-05-09T02:19:45.737Z,948.04
2019-05-09T02:20:45.711Z,948.00
2019-05-09T02:21:45.684Z,948.04
2019-05-09T02:22:45.658Z,948.06
2019-05-09T02:23:45.632Z,948.05
2019-05-09T02:24:45.606Z,948.06
2019-05-09T02:25:45.579Z,948.07
2019-05-09T02:26:45.551Z,948.10
2019-05-09T02:27:45.526Z,948.10
2019-05-09T02:28:45.499Z,948.15
2019-05-09T02:29:45.473Z,948.15
2019-05-09T02:30:45.452Z,948.14
2019-05-09T02:31:45.422Z,948.19
2019-05-09T02:32:45.499Z,948.15
2019-05-09T02:33:45.998Z,948.13
2019-05-09T02:34:45.345Z,948.11
2019-05-09T02:35:55.796Z,948.03
2019-05-09T02:36:45.289Z,948.07
2019-05-09T02:37:45.263Z,948.03
2019-05-09T02:38:48.455Z,947.99
2019-05-09T02:39:45.214Z,947.95
2019-05-09T02:40:45.184Z,947.93
2019-05-09T02:42:00.891Z,947.95
2019-05-09T02:42:48.711Z,947.97
2019-05-09T02:43:45.103Z,947.95
2019-05-09T02:44:45.079Z,947.96
2019-05-09T02:45:49.357Z,947.93
2019-05-09T02:46:45.027Z,947.98
2019-05-09T02:47:45.007Z,947.97
2019-05-09T02:48:44.974Z,947.96
2019-05-09T02:49:44.948Z,947.99
2019-05-09T02:50:48.257Z,947.97
2019-05-09T02:51:44.893Z,947.98
2019-05-09T02:52:44.877Z,947.92
2019-05-09T02:53:44.840Z,947.97
2019-05-09T02:54:44.817Z,947.96
2019-05-09T02:55:44.795Z,947.99
2019-05-09T02:56:44.768Z,947.97
2019-05-09T02:57:44.735Z,947.96
2019-05-09T02:58:44.718Z,947.92
2019-05-09T02:59:44.682Z,947.88
2019-05-09T03:00:44.656Z,947.87
2019-05-09T03:01:44.628Z,947.86
2019-05-09T03:02:44.603Z,947.82
2019-05-09T03:03:44.576Z,947.78
2019-05-09T03:04:44.550Z,947.75
2019-05-09T03:05:44.524Z,947.79
2019-05-09T03:06:44.495Z,947.88
2019-05-09T03:07:44.470Z,947.92
2019-05-09T03:08:44.443Z,947.92
2019-05-09T03:09:44.416Z,947.91
2019-05-09T03:10:44.390Z,947.94
2019-05-09T03:11:44.366Z,947.92
2019-05-09T03:12:44.341Z,947.94
2019-05-09T03:13:44.309Z,947.97
2019-05-09T03:14:44.284Z,947.96
2019-05-09T03:15:44.262Z,947.99
2019-05-09T03:16:44.231Z,947.98
2019-05-09T03:17:44.204Z,947.94
2019-05-09T03:18:44.177Z,947.94
2019-05-09T03:19:44.909Z,947.92
2019-05-09T03:20:44.126Z,947.83
2019-05-09T03:21:44.106Z,947.83
2019-05-09T03:22:44.073Z,947.85
2019-05-09T03:23:44.046Z,947.79
2019-05-09T03:24:44.025Z,947.78
2019-05-09T03:25:43.994Z,947.73
2019-05-09T03:26:43.968Z,947.73
2019-05-09T03:27:43.943Z,947.70
2019-05-09T03:28:43.924Z,947.68
2019-05-09T03:29:43.888Z,947.67
2019-05-09T03:30:43.863Z,947.64
2019-05-09T03:31:43.837Z,947.65
2019-05-09T03:32:43.811Z,947.61
2019-05-09T03:33:43.786Z,947.61
2019-05-09T03:34:43.757Z,947.59
2019-05-09T03:35:43.735Z,947.52
2019-05-09T03:36:43.705Z,947.51
2019-05-09T03:37:43.677Z,947.46
2019-05-09T03:38:43.651Z,947.44
2019-05-09T03:39:43.627Z,947.42
2019-05-09T03:40:43.600Z,947.40
2019-05-09T03:41:43.572Z,947.34
2019-05-09T03:42:43.901Z,947.37
2019-05-09T03:43:43.521Z,947.29
2019-05-09T03:44:43.494Z,947.29
2019-05-09T03:45:43.467Z,947.24
2019-05-09T03:46:43.442Z,947.25
2019-05-09T03:47:43.415Z,947.25
2019-05-09T03:48:43.389Z,947.25
2019-05-09T03:49:43.364Z,947.26
2019-05-09T03:50:43.335Z,947.25
2019-05-09T03:51:43.309Z,947.24
2019-05-09T03:52:43.285Z,947.19
2019-05-09T03:53:43.257Z,947.19
2019-05-09T03:54:43.230Z,947.20
2019-05-09T03:55:43.205Z,947.23
2019-05-09T03:56:43.180Z,947.16
2019-05-09T03:57:43.150Z,947.20
2019-05-09T03:58:43.124Z,947.15
2019-05-09T03:59:43.098Z,947.16
2019-05-09T04:00:43.071Z,947.21
2019-05-09T04:01:46.606Z,947.23
2019-05-09T04:02:43.020Z,947.22
2019-05-09T04:03:42.991Z,947.24
2019-05-09T04:04:42.965Z,947.19
2019-05-09T04:05:55.394Z,947.18
2019-05-09T04:06:42.912Z,947.17
2019-05-09T04:07:42.885Z,947.13
2019-05-09T04:08:42.859Z,947.09
2019-05-09T04:09:42.831Z,947.09
2019-05-09T04:10:42.805Z,947.19
2019-05-09T04:11:42.778Z,947.17
2019-05-09T04:12:53.873Z,947.20
2019-05-09T04:13:42.725Z,947.23
2019-05-09T04:14:42.701Z,947.21
2019-05-09T04:15:42.672Z,947.20
2019-05-09T04:16:42.645Z,947.21
2019-05-09T04:17:42.619Z,947.21
2019-05-09T04:18:42.592Z,947.23
2019-05-09T04:19:42.565Z,947.26
2019-05-09T04:20:42.538Z,947.22
2019-05-09T04:21:42.511Z,947.19
2019-05-09T04:22:42.488Z,947.21
2019-05-09T04:23:42.459Z,947.20
2019-05-09T04:24:42.432Z,947.18
2019-05-09T04:25:42.405Z,947.23
2019-05-09T04:26:42.379Z,947.26
2019-05-09T04:27:42.353Z,947.19
2019-05-09T04:28:42.327Z,947.22
2019-05-09T04:29:42.298Z,947.19
2019-05-09T04:30:44.524Z,947.21
2019-05-09T04:31:42.246Z,947.19
2019-05-09T04:32:42.219Z,947.17
2019-05-09T04:33:42.192Z,947.20
2019-05-09T04:34:42.171Z,947.16
2019-05-09T04:35:42.140Z,947.21
2019-05-09T04:36:43.614Z,947.16
2019-05-09T04:37:42.086Z,947.22
2019-05-09T04:38:42.070Z,947.17
2019-05-09T04:39:42.041Z,947.23
2019-05-09T04:40:44.905Z,947.22
2019-05-09T04:41:41.998Z,947.22
2019-05-09T04:42:44.519Z,947.26
2019-05-09T04:43:41.934Z,947.21
2019-05-09T04:44:41.902Z,947.23
2019-05-09T04:45:42.047Z,947.25
2019-05-09T04:46:41.848Z,947.21
2019-05-09T04:47:43.575Z,947.25
2019-05-09T04:48:41.795Z,947.22
2019-05-09T04:49:45.168Z,947.21
2019-05-09T04:50:41.742Z,947.17
2019-05-09T04:51:41.716Z,947.15
2019-05-09T04:52:41.690Z,947.05
2019-05-09T04:53:41.663Z,947.05
2019-05-09T04:54:41.641Z,947.07
2019-05-09T04:55:41.610Z,947.07
2019-05-09T04:56:41.585Z,947.08
2019-05-09T04:57:41.558Z,947.06
2019-05-09T04:58:41.531Z,947.04
2019-05-09T04:59:41.505Z,947.08
2019-05-09T05:00:41.479Z,947.10
2019-05-09T05:01:41.452Z,947.12
2019-05-09T05:02:41.425Z,947.10
2019-05-09T05:03:41.400Z,947.08
2019-05-09T05:04:41.373Z,947.06
2019-05-09T05:05:41.347Z,947.02
2019-05-09T05:06:41.320Z,947.03
2019-05-09T05:07:41.294Z,947.02
2019-05-09T05:08:41.268Z,947.01
2019-05-09T05:09:41.241Z,947.08
2019-05-09T05:10:41.215Z,947.13
2019-05-09T05:11:41.188Z,947.14
2019-05-09T05:12:41.162Z,947.10
2019-05-09T05:13:41.142Z,947.06
2019-05-09T05:14:41.110Z,947.05
2019-05-09T05:15:41.084Z,947.07
2019-05-09T05:16:41.064Z,947.15
2019-05-09T05:17:41.031Z,947.13
2019-05-09T05:18:41.006Z,947.12
2019-05-09T05:19:40.978Z,947.13
2019-05-09T05:20:40.952Z,947.10
2019-05-09T05:21:40.926Z,947.13
2019-05-09T05:22:40.904Z,947.12
2019-05-09T05:23:40.875Z,947.15
2019-05-09T05:24:40.855Z,947.14
2019-05-09T05:25:40.825Z,947.08
2019-05-09T05:26:40.797Z,947.04
2019-05-09T05:27:40.770Z,947.00
2019-05-09T05:28:40.746Z,947.01
2019-05-09T05:29:40.718Z,947.01
2019-05-09T05:30:40.691Z,947.02
2019-05-09T05:31:40.666Z,947.00
2019-05-09T05:32:40.647Z,947.02
2019-05-09T05:33:40.615Z,946.99
2019-05-09T05:34:40.589Z,946.94
2019-05-09T05:35:40.563Z,946.93
2019-05-09T05:36:40.537Z,946.94
2019-05-09T05:37:40.510Z,947.02
2019-05-09T05:38:40.485Z,946.99
2019-05-09T05:39:40.463Z,947.03
2019-05-09T05:40:44.732Z,947.03
2019-05-09T05:41:40.408Z,947.09
2019-05-09T05:42:40.382Z,947.10
2019-05-09T05:43:44.577Z,947.05
2019-05-09T05:44:40.342Z,947.09
2019-05-09T05:45:40.303Z,947.12
2019-05-09T05:46:40.277Z,947.09
2019-05-09T05:47:40.252Z,947.10
2019-05-09T05:48:40.228Z,947.11
2019-05-09T05:49:40.204Z,947.13
2019-05-09T05:50:40.177Z,947.14
2019-05-09T05:51:40.151Z,947.11
2019-05-09T05:52:40.127Z,947.18
2019-05-09T05:53:40.100Z,947.20
2019-05-09T05:54:40.075Z,947.14
2019-05-09T05:55:40.053Z,947.12
2019-05-09T05:56:40.025Z,947.10
2019-05-09T05:57:40.003Z,947.04
2019-05-09T05:58:39.974Z,947.04
2019-05-09T05:59:40.944Z,947.03
2019-05-09T06:00:39.924Z,947.00
2019-05-09T06:01:39.902Z,946.99
2019-05-09T06:02:39.874Z,947.03
2019-05-09T06:03:39.849Z,947.08
2019-05-09T06:04:39.824Z,947.03
2019-05-09T06:05:39.798Z,947.11
2019-05-09T06:06:39.774Z,947.16
2019-05-09T06:07:39.750Z,947.24
2019-05-09T06:08:39.725Z,947.26
2019-05-09T06:09:39.699Z,947.25
2019-05-09T06:10:39.675Z,947.28
2019-05-09T06:11:39.650Z,947.28
2019-05-09T06:12:39.626Z,947.30
2019-05-09T06:13:53.275Z,947.27
2019-05-09T06:14:39.575Z,947.25
2019-05-09T06:15:39.556Z,947.24
2019-05-09T06:16:39.531Z,947.23
2019-05-09T06:17:39.543Z,947.17
2019-05-09T06:18:39.477Z,947.12
2019-05-09T06:19:39.453Z,947.09
2019-05-09T06:20:39.428Z,947.10
2019-05-09T06:21:39.403Z,947.11
2019-05-09T06:22:39.379Z,947.08
2019-05-09T06:23:39.386Z,947.12
2019-05-09T06:24:39.332Z,947.04
2019-05-09T06:25:39.305Z,947.04
2019-05-09T06:26:39.281Z,946.97
2019-05-09T06:27:42.431Z,946.95
2019-05-09T06:28:39.234Z,946.96
2019-05-09T06:29:39.210Z,946.99
2019-05-09T06:30:41.157Z,947.05
2019-05-09T06:31:39.162Z,947.01
2019-05-09T06:32:39.137Z,947.00
2019-05-09T06:33:46.477Z,947.03
2019-05-09T06:34:42.021Z,947.03
2019-05-09T06:35:39.064Z,947.09
2019-05-09T06:36:39.188Z,947.11
2019-05-09T06:37:39.016Z,947.14
2019-05-09T06:38:38.992Z,947.09
2019-05-09T06:39:38.978Z,947.08
2019-05-09T06:40:38.953Z,947.03
2019-05-09T06:41:38.918Z,947.08
2019-05-09T06:42:38.894Z,947.08
2019-05-09T06:43:39.589Z,947.12
2019-05-09T06:44:38.847Z,947.11
2019-05-09T06:45:41.458Z,947.11
2019-05-09T06:46:38.799Z,947.12
2019-05-09T06:47:38.776Z,947.14
2019-05-09T06:48:38.752Z,947.11
2019-05-09T06:49:38.728Z,947.11
2019-05-09T06:50:38.703Z,947.13
2019-05-09T06:51:38.881Z,947.17
2019-05-09T06:52:38.656Z,947.19
2019-05-09T06:53:38.633Z,947.19
2019-05-09T06:54:41.211Z,947.22
2019-05-09T06:55:38.715Z,947.15
2019-05-09T06:56:38.559Z,947.16
2019-05-09T06:57:42.211Z,947.16
2019-05-09T06:58:38.573Z,947.16
2019-05-09T06:59:38.488Z,947.18
2019-05-09T07:00:39.966Z,947.24
2019-05-09T07:01:38.441Z,947.28
2019-05-09T07:02:38.874Z,947.28
2019-05-09T07:03:38.393Z,947.28
2019-05-09T07:04:38.369Z,947.25
2019-05-09T07:05:38.764Z,947.23
2019-05-09T07:06:39.071Z,947.25
2019-05-09T07:07:38.297Z,947.22
2019-05-09T07:08:38.275Z,947.28
2019-05-09T07:09:38.528Z,947.35
2019-05-09T07:10:38.227Z,947.32
2019-05-09T07:11:38.241Z,947.29
2019-05-09T07:12:38.183Z,947.28
2019-05-09T07:13:38.290Z,947.30
2019-05-09T07:14:41.448Z,947.30
2019-05-09T07:15:38.109Z,947.24
2019-05-09T07:16:38.086Z,947.27
2019-05-09T07:17:38.710Z,947.34
2019-05-09T07:18:38.345Z,947.39
2019-05-09T07:19:38.554Z,947.44
2019-05-09T07:20:38.084Z,947.48
2019-05-09T07:21:37.969Z,947.45
2019-05-09T07:22:40.197Z,947.45
2019-05-09T07:23:37.926Z,947.51
2019-05-09T07:24:37.910Z,947.46
2019-05-09T07:25:37.901Z,947.44
2019-05-09T07:26:37.853Z,947.50
2019-05-09T07:27:39.075Z,947.48
2019-05-09T07:28:37.816Z,947.47
2019-05-09T07:29:37.785Z,947.54
2019-05-09T07:30:37.759Z,947.57
2019-05-09T07:31:38.066Z,947.55
2019-05-09T07:32:38.257Z,947.53
2019-05-09T07:33:38.372Z,947.59
2019-05-09T07:34:38.250Z,947.51
2019-05-09T07:35:38.309Z,947.47
2019-05-09T07:36:38.372Z,947.53
2019-05-09T07:37:38.017Z,947.54
2019-05-09T07:38:38.501Z,947.57
2019-05-09T07:39:38.298Z,947.51
2019-05-09T07:40:38.486Z,947.49
2019-05-09T07:41:38.431Z,947.51
2019-05-09T07:42:39.082Z,947.43
2019-05-09T07:43:38.431Z,947.42
2019-05-09T07:44:46.227Z,947.46
2019-05-09T07:45:38.390Z,947.43
2019-05-09T07:46:38.410Z,947.40
2019-05-09T07:47:38.735Z,947.34
2019-05-09T07:48:38.067Z,947.39
2019-05-09T07:49:37.790Z,947.42
2019-05-09T07:50:39.538Z,947.38
2019-05-09T07:51:37.463Z,947.30
2019-05-09T07:52:38.804Z,947.25
2019-05-09T07:53:38.034Z,947.29
2019-05-09T07:54:37.814Z,947.28
2019-05-09T07:55:37.932Z,947.23
2019-05-09T07:56:37.815Z,947.28
2019-05-09T07:57:44.934Z,947.17
2019-05-09T07:58:37.791Z,947.16
2019-05-09T07:59:38.914Z,947.19
2019-05-09T08:00:38.459Z,947.13
2019-05-09T08:01:38.478Z,947.15
2019-05-09T08:02:38.703Z,947.24
2019-05-09T08:03:38.501Z,947.25
2019-05-09T08:04:38.615Z,947.23
2019-05-09T08:05:38.501Z,947.29
2019-05-09T08:06:38.031Z,947.23
2019-05-09T08:07:38.154Z,947.23
2019-05-09T08:08:38.429Z,947.21
2019-05-09T08:09:38.770Z,947.25
2019-05-09T08:10:38.549Z,947.28
2019-05-09T08:11:37.624Z,947.23
2019-05-09T08:12:38.963Z,947.26
2019-05-09T08:13:39.132Z,947.24
2019-05-09T08:14:37.767Z,947.27
2019-05-09T08:15:38.404Z,947.23
2019-05-09T08:16:37.957Z,947.22
2019-05-09T08:17:38.178Z,947.18
2019-05-09T08:18:37.549Z,947.14
2019-05-09T08:19:38.054Z,947.14
2019-05-09T08:20:40.376Z,947.16
2019-05-09T08:21:38.339Z,947.14
2019-05-09T08:22:40.919Z,947.14
2019-05-09T08:23:39.498Z,947.15
2019-05-09T08:24:38.049Z,947.21
2019-05-09T08:25:38.214Z,947.21
2019-05-09T08:26:36.425Z,947.24
2019-05-09T08:27:37.828Z,947.25
2019-05-09T08:28:38.756Z,947.27
2019-05-09T08:29:39.357Z,947.25
2019-05-09T08:30:39.924Z,947.24
2019-05-09T08:31:40.073Z,947.31
2019-05-09T08:32:37.733Z,947.29
2019-05-09T08:33:38.035Z,947.22
2019-05-09T08:34:37.767Z,947.19
2019-05-09T08:35:38.416Z,947.24
2019-05-09T08:36:38.338Z,947.15
2019-05-09T08:37:38.779Z,947.25
2019-05-09T08:38:38.570Z,947.22
2019-05-09T08:39:38.282Z,947.19
2019-05-09T08:40:38.250Z,947.20
2019-05-09T08:41:38.481Z,947.16
2019-05-09T08:42:37.825Z,947.19
2019-05-09T08:43:37.707Z,947.13
2019-05-09T08:44:38.251Z,947.11
2019-05-09T08:45:38.063Z,947.14
2019-05-09T08:46:37.730Z,947.15
2019-05-09T08:47:38.056Z,947.17
2019-05-09T08:48:37.883Z,947.18
2019-05-09T08:49:37.431Z,947.22
2019-05-09T08:50:38.670Z,947.31
2019-05-09T08:51:47.563Z,947.35
2019-05-09T08:52:37.616Z,947.40
2019-05-09T08:53:37.964Z,947.44
2019-05-09T08:54:37.856Z,947.44
2019-05-09T08:55:38.132Z,947.37
2019-05-09T08:56:38.573Z,947.47
2019-05-09T08:57:37.521Z,947.47
2019-05-09T08:58:38.043Z,947.43
2019-05-09T08:59:38.072Z,947.46
2019-05-09T09:00:35.649Z,947.46
2019-05-09T09:02:05.028Z,947.46
2019-05-09T09:02:37.673Z,947.41
2019-05-09T09:03:37.759Z,947.41
2019-05-09T09:04:38.166Z,947.44
2019-05-09T09:05:37.858Z,947.43
2019-05-09T09:06:37.400Z,947.45
2019-05-09T09:07:37.754Z,947.52
2019-05-09T09:08:37.719Z,947.47
2019-05-09T09:09:37.720Z,947.50
2019-05-09T09:10:38.042Z,947.53
2019-05-09T09:11:35.403Z,947.44
2019-05-09T09:12:35.379Z,947.42
2019-05-09T09:13:37.619Z,947.44
2019-05-09T09:14:35.334Z,947.47
2019-05-09T09:15:57.965Z,947.50
2019-05-09T09:16:35.292Z,947.49
2019-05-09T09:17:35.267Z,947.46
2019-05-09T09:18:35.246Z,947.54
2019-05-09T09:19:35.224Z,947.44
2019-05-09T09:20:37.768Z,947.43
2019-05-09T09:21:35.179Z,947.25
2019-05-09T09:22:37.377Z,947.26
2019-05-09T09:23:44.011Z,947.25
2019-05-09T09:24:37.395Z,947.29
2019-05-09T09:25:35.092Z,947.31
2019-05-09T09:26:35.070Z,947.31
2019-05-09T09:27:35.049Z,947.23
2019-05-09T09:28:35.029Z,947.33
2019-05-09T09:29:38.030Z,947.43
2019-05-09T09:30:34.984Z,947.40
2019-05-09T09:31:34.963Z,947.46
2019-05-09T09:32:34.944Z,947.51
2019-05-09T09:33:37.468Z,947.39
2019-05-09T09:34:34.900Z,947.42
2019-05-09T09:35:34.877Z,947.42
2019-05-09T09:36:34.858Z,947.48
2019-05-09T09:37:47.581Z,947.37
2019-05-09T09:38:34.812Z,947.37
2019-05-09T09:39:34.823Z,947.41
2019-05-09T09:40:34.769Z,947.40
2019-05-09T09:41:34.775Z,947.41
2019-05-09T09:42:34.733Z,947.39
2019-05-09T09:43:34.703Z,947.42
2019-05-09T09:44:34.683Z,947.37
2019-05-09T09:45:34.659Z,947.40
2019-05-09T09:46:34.637Z,947.38
2019-05-09T09:47:34.616Z,947.40
2019-05-09T09:48:34.595Z,947.42
2019-05-09T09:49:34.707Z,947.39
2019-05-09T09:50:34.551Z,947.35
2019-05-09T09:51:34.541Z,947.41
2019-05-09T09:52:34.652Z,947.34
2019-05-09T09:53:34.484Z,947.33
2019-05-09T09:54:34.464Z,947.39
2019-05-09T09:55:34.442Z,947.35
2019-05-09T09:56:34.421Z,947.38
2019-05-09T09:57:34.398Z,947.44
2019-05-09T09:58:34.377Z,947.42
2019-05-09T09:59:37.403Z,947.41
2019-05-09T10:00:34.334Z,947.42
2019-05-09T10:01:34.313Z,947.38
2019-05-09T10:02:34.289Z,947.33
2019-05-09T10:03:34.272Z,947.43
2019-05-09T10:04:34.247Z,947.45
2019-05-09T10:05:34.224Z,947.47
2019-05-09T10:06:34.203Z,947.47
2019-05-09T10:07:34.181Z,947.33
2019-05-09T10:08:34.160Z,947.26
2019-05-09T10:09:34.137Z,947.30
2019-05-09T10:10:34.124Z,947.29
2019-05-09T10:11:34.095Z,947.33
2019-05-09T10:12:34.321Z,947.27
2019-05-09T10:13:34.054Z,947.37
2019-05-09T10:14:34.028Z,947.36
2019-05-09T10:15:34.006Z,947.29
2019-05-09T10:16:33.985Z,947.37
2019-05-09T10:17:33.962Z,947.48
2019-05-09T10:18:33.941Z,947.40
2019-05-09T10:19:33.923Z,947.43
2019-05-09T10:20:33.896Z,947.38
2019-05-09T10:21:33.876Z,947.39
2019-05-09T10:22:33.912Z,947.52
2019-05-09T10:23:33.850Z,947.43
2019-05-09T10:24:33.811Z,947.55
2019-05-09T10:25:33.790Z,947.66
2019-05-09T10:26:33.767Z,947.56
2019-05-09T10:27:33.745Z,947.58
2019-05-09T10:28:33.729Z,947.53
2019-05-09T10:29:34.451Z,947.45
2019-05-09T10:30:33.680Z,947.41
2019-05-09T10:31:33.657Z,947.47
2019-05-09T10:32:33.636Z,947.41
2019-05-09T10:33:33.613Z,947.42
2019-05-09T10:34:33.593Z,947.42
2019-05-09T10:35:33.575Z,947.44
2019-05-09T10:36:33.549Z,947.33
2019-05-09T10:37:33.527Z,947.32
2019-05-09T10:38:33.505Z,947.38
2019-05-09T10:39:33.483Z,947.32
2019-05-09T10:40:33.462Z,947.32
2019-05-09T10:41:33.439Z,947.31
2019-05-09T10:42:33.418Z,947.24
2019-05-09T10:43:38.679Z,947.13
2019-05-09T10:44:33.374Z,947.25
2019-05-09T10:45:33.357Z,947.34
2019-05-09T10:46:48.123Z,947.35
2019-05-09T10:47:33.309Z,947.27
2019-05-09T10:48:33.287Z,947.17
2019-05-09T10:49:33.265Z,947.16
2019-05-09T10:50:34.721Z,947.11
2019-05-09T10:51:33.222Z,947.19
2019-05-09T10:52:33.202Z,947.11
2019-05-09T10:53:33.178Z,947.06
2019-05-09T10:54:33.159Z,947.07
2019-05-09T10:55:33.136Z,946.92
2019-05-09T10:56:38.423Z,947.10
2019-05-09T10:57:33.104Z,947.03
2019-05-09T10:58:33.079Z,947.01
2019-05-09T10:59:33.052Z,947.06
2019-05-09T11:00:33.029Z,947.07
2019-05-09T11:01:33.006Z,947.10
2019-05-09T11:02:33.737Z,947.01
2019-05-09T11:03:32.963Z,947.12
2019-05-09T11:04:32.941Z,947.04
2019-05-09T11:05:32.919Z,947.07
2019-05-09T11:06:32.898Z,947.11
2019-05-09T11:07:32.878Z,947.03
2019-05-09T11:08:32.856Z,947.16
2019-05-09T11:09:32.833Z,947.15
2019-05-09T11:10:33.072Z,946.98
2019-05-09T11:11:32.853Z,946.93
2019-05-09T11:12:32.769Z,947.02
2019-05-09T11:13:32.749Z,947.07
2019-05-09T11:14:37.283Z,946.98
2019-05-09T11:15:32.707Z,947.04
2019-05-09T11:16:44.927Z,947.12
2019-05-09T11:17:32.664Z,947.10
2019-05-09T11:18:32.643Z,947.22
2019-05-09T11:19:32.622Z,947.35
2019-05-09T11:20:32.601Z,947.42
2019-05-09T11:21:32.579Z,947.41
2019-05-09T11:22:32.563Z,947.50
2019-05-09T11:23:34.039Z,947.43
2019-05-09T11:24:44.877Z,947.47
2019-05-09T11:25:32.494Z,947.64
2019-05-09T11:26:32.473Z,947.70
2019-05-09T11:27:32.452Z,947.56
2019-05-09T11:28:32.433Z,947.53
2019-05-09T11:29:35.420Z,947.57
2019-05-09T11:30:32.386Z,947.44
2019-05-09T11:31:32.369Z,947.57
2019-05-09T11:32:32.345Z,947.58
2019-05-09T11:33:32.323Z,947.50
2019-05-09T11:34:32.302Z,947.51
2019-05-09T11:35:33.781Z,947.53
2019-05-09T11:36:32.258Z,947.57
2019-05-09T11:37:32.236Z,947.50
2019-05-09T11:38:37.888Z,947.46
2019-05-09T11:39:39.754Z,947.50
2019-05-09T11:40:32.171Z,947.39
2019-05-09T11:41:32.149Z,947.50
2019-05-09T11:42:33.523Z,947.40
2019-05-09T11:43:32.105Z,947.24
2019-05-09T11:44:32.083Z,947.30
2019-05-09T11:45:32.061Z,947.37
2019-05-09T11:46:32.038Z,947.27
2019-05-09T11:47:41.524Z,947.25
2019-05-09T11:48:31.994Z,947.24
2019-05-09T11:49:31.972Z,947.30
2019-05-09T11:50:31.953Z,947.41
2019-05-09T11:51:31.927Z,947.37
2019-05-09T11:52:34.159Z,947.53
2019-05-09T11:53:31.884Z,947.46
2019-05-09T11:54:31.862Z,947.52
2019-05-09T11:55:36.434Z,947.51
2019-05-09T11:56:31.826Z,947.61
2019-05-09T11:57:31.796Z,947.59
2019-05-09T11:58:34.026Z,947.48
2019-05-09T11:59:31.753Z,947.69
2019-05-09T12:00:31.736Z,947.52
2019-05-09T12:01:31.722Z,947.64
2019-05-09T12:02:31.687Z,947.74
2019-05-09T12:03:31.670Z,947.74
2019-05-09T12:04:31.652Z,947.75
2019-05-09T12:05:31.622Z,947.77
2019-05-09T12:06:31.611Z,947.77
2019-05-09T12:07:31.579Z,947.59
2019-05-09T12:08:31.559Z,947.69
2019-05-09T12:09:31.536Z,947.51
2019-05-09T12:10:31.520Z,947.59
2019-05-09T12:11:31.494Z,947.69
2019-05-09T12:12:31.474Z,947.75
2019-05-09T12:13:31.451Z,947.70
2019-05-09T12:14:31.431Z,947.81
2019-05-09T12:15:31.429Z,947.93
2019-05-09T12:16:31.388Z,947.71
2019-05-09T12:17:49.181Z,947.88
2019-05-09T12:18:31.345Z,947.82
2019-05-09T12:19:31.338Z,947.79
2019-05-09T12:20:31.303Z,947.89
2019-05-09T12:21:31.281Z,947.85
2019-05-09T12:22:31.270Z,947.98
2019-05-09T12:23:31.238Z,947.88
2019-05-09T12:24:31.218Z,947.87
2019-05-09T12:25:31.200Z,947.96
2019-05-09T12:26:31.173Z,947.84
2019-05-09T12:27:31.154Z,947.85
2019-05-09T12:28:31.131Z,947.84